Time;durP1;ratioP1;P1;durP2;ratioP2;P2;SDS_P1;SDS_P2;PMS_P1;PMS_P2;Temp;Humidity;BMP_temperature;BMP_pressure;BME280_temperature;BME280_humidity;BME280_pressure;Samples;Min_cycle;Max_cycle;Signal;HPM_P1;HPM_P2
2022/05/13 00:01:55;;;;;;;2.70;0.80;;;;;;;13.61;52.85;100405.94;5164438;27;20146;-79
2022/05/13 00:04:20;;;;;;;4.13;0.73;;;;;;;13.57;53.17;100402.84;5146724;27;20372;-80
2022/05/13 00:06:46;;;;;;;2.95;0.60;;;;;;;13.50;53.12;100397.50;5161912;27;20466;-79
2022/05/13 00:09:11;;;;;;;5.47;0.70;;;;;;;13.46;53.28;100400.88;5162903;27;20041;-80
2022/05/13 00:11:37;;;;;;;2.20;0.60;;;;;;;13.46;53.62;100395.47;5143635;27;20019;-80
2022/05/13 00:14:04;;;;;;;1.10;0.50;;;;;;;13.44;53.56;100398.38;5162791;27;20091;-79
2022/05/13 00:16:29;;;;;;;1.25;0.50;;;;;;;13.44;53.78;100398.38;5161653;27;20031;-79
2022/05/13 00:18:55;;;;;;;1.37;0.73;;;;;;;13.36;53.97;100396.00;5162070;27;20108;-80
2022/05/13 00:21:20;;;;;;;1.83;0.83;;;;;;;13.29;54.16;100400.63;5162269;27;20283;-80
2022/05/13 00:23:46;;;;;;;2.13;0.75;;;;;;;13.36;54.16;100400.56;5161719;27;20106;-79
2022/05/13 00:26:11;;;;;;;1.70;0.65;;;;;;;13.38;54.46;100393.91;5162694;27;20034;-79
2022/05/13 00:28:36;;;;;;;1.92;0.70;;;;;;;13.26;55.11;100403.78;5162298;27;20034;-79
2022/05/13 00:31:05;;;;;;;1.63;0.75;;;;;;;13.12;56.02;100397.63;5161881;27;20051;-79
2022/05/13 00:33:32;;;;;;;2.22;0.98;;;;;;;13.02;56.01;100400.03;5143113;27;20417;-79
2022/05/13 00:35:57;;;;;;;2.10;0.60;;;;;;;12.99;56.37;100400.47;5161872;27;20035;-79
2022/05/13 00:38:23;;;;;;;2.90;0.68;;;;;;;12.96;56.73;100384.69;5161031;27;20110;-79
2022/05/13 00:40:48;;;;;;;3.35;1.08;;;;;;;12.91;56.68;100383.66;5161710;27;20034;-79
2022/05/13 00:43:38;;;;;;;2.35;0.70;;;;;;;12.95;56.71;100382.19;5141856;27;20028;-79
2022/05/13 00:46:04;;;;;;;5.13;1.10;;;;;;;12.93;56.75;100374.28;5161821;27;20038;-79
2022/05/13 00:48:29;;;;;;;2.17;0.70;;;;;;;12.86;56.84;100368.97;5163054;27;20425;-79
2022/05/13 00:50:55;;;;;;;1.58;0.60;;;;;;;12.81;57.05;100378.78;5161690;27;20260;-78
2022/05/13 00:53:21;;;;;;;;;;;;;;;12.73;57.37;100376.34;5161693;27;20458;-79
2022/05/13 00:55:46;;;;;;;1.42;0.50;;;;;;;12.72;57.48;100378.22;5161378;27;19950;-79
2022/05/13 00:58:17;;;;;;;1.43;0.63;;;;;;;12.68;58.13;100373.47;5162048;27;20054;-79
2022/05/13 01:00:43;;;;;;;4.97;1.05;;;;;;;12.63;57.89;100368.72;5160891;27;20331;-78
2022/05/13 01:03:11;;;;;;;2.58;0.90;;;;;;;12.59;58.11;100370.19;5160887;27;20027;-79
2022/05/13 01:05:38;;;;;;;4.53;1.25;;;;;;;12.59;58.04;100367.50;5160619;27;20026;-79
2022/05/13 01:08:06;;;;;;;2.72;0.70;;;;;;;12.54;58.30;100366.53;5142403;27;20381;-79
2022/05/13 01:10:33;;;;;;;2.58;0.65;;;;;;;12.52;58.61;100377.56;5161056;27;20034;-80
2022/05/13 01:13:04;;;;;;;1.85;0.73;;;;;;;12.49;58.62;100372.56;5161749;27;20045;-79
2022/05/13 01:15:33;;;;;;;3.33;1.13;;;;;;;12.44;58.65;100375.94;5161859;27;20026;-80
2022/05/13 01:18:05;;;;;;;2.85;0.80;;;;;;;12.42;58.79;100377.19;5161085;27;20022;-79
2022/05/13 01:20:42;;;;;;;3.38;0.80;;;;;;;12.37;59.27;100374.31;5160855;27;20106;-79
2022/05/13 01:23:11;;;;;;;1.67;0.63;;;;;;;12.35;59.63;100376.41;5162157;27;20062;-80
2022/05/13 01:25:45;;;;;;;1.85;0.77;;;;;;;12.31;59.41;100373.31;5160727;27;20465;-79
2022/05/13 01:28:18;;;;;;;4.30;0.80;;;;;;;12.29;59.59;100369.16;5158644;27;20027;-79
2022/05/13 01:30:48;;;;;;;3.75;0.80;;;;;;;12.20;59.97;100365.06;5161846;27;20106;-80
2022/05/13 01:33:15;;;;;;;2.85;0.85;;;;;;;12.23;60.58;100373.56;5161788;27;20040;-79
2022/05/13 01:35:44;;;;;;;1.60;0.50;;;;;;;12.23;60.09;100361.94;5161493;27;20109;-80
2022/05/13 01:38:10;;;;;;;2.30;0.60;;;;;;;12.25;60.42;100373.34;5161730;27;20134;-80
2022/05/13 01:40:36;;;;;;;3.58;0.80;;;;;;;12.18;60.50;100370.69;5143012;27;20038;-80
2022/05/13 01:43:02;;;;;;;;;;;;;;;12.18;60.70;100372.56;5162234;27;20078;-79
2022/05/13 01:45:27;;;;;;;3.15;0.90;;;;;;;12.20;61.07;100374.00;5161441;27;19972;-81
2022/05/13 01:47:53;;;;;;;3.03;0.90;;;;;;;12.11;60.88;100373.44;5162279;27;20058;-81
2022/05/13 01:50:18;;;;;;;2.47;0.80;;;;;;;12.20;61.12;100373.16;5162668;27;20601;-81
2022/05/13 01:52:44;;;;;;;1.70;0.75;;;;;;;12.15;61.51;100366.56;5161817;27;20260;-80
2022/05/13 01:55:09;;;;;;;1.88;0.80;;;;;;;12.12;61.70;100363.47;5162370;27;20043;-80
2022/05/13 01:57:34;;;;;;;4.25;0.77;;;;;;;12.14;61.72;100364.91;5141495;27;20047;-80
2022/05/13 02:00:01;;;;;;;2.57;1.00;;;;;;;12.19;61.75;100356.13;5160446;27;20283;-81
2022/05/13 02:02:26;;;;;;;2.83;1.00;;;;;;;12.20;61.72;100352.38;5161111;27;20038;-80
2022/05/13 02:04:55;;;;;;;2.43;1.43;;;;;;;12.13;62.06;100349.72;5161596;27;20031;-79
2022/05/13 02:07:20;;;;;;;4.47;1.38;;;;;;;12.06;63.04;100354.34;5160311;27;20050;-79
2022/05/13 02:09:45;;;;;;;4.20;1.37;;;;;;;12.00;63.32;100351.69;5160819;27;20046;-80
2022/05/13 02:12:11;;;;;;;4.10;1.10;;;;;;;12.06;62.40;100345.41;5161038;27;20260;-80
2022/05/13 02:14:36;;;;;;;2.42;1.20;;;;;;;12.01;62.87;100342.50;5142588;27;20022;-80
2022/05/13 02:17:01;;;;;;;4.20;1.17;;;;;;;12.01;63.26;100335.25;5141020;27;20464;-79
2022/05/13 02:19:27;;;;;;;3.87;0.97;;;;;;;11.94;62.88;100341.75;5159760;27;20271;-80
2022/05/13 02:21:52;;;;;;;3.23;1.13;;;;;;;12.04;62.58;100339.38;5160732;27;20019;-80
2022/05/13 02:24:17;;;;;;;3.50;1.53;;;;;;;11.99;63.03;100348.16;5160179;27;20033;-80
2022/05/13 02:26:43;;;;;;;3.55;1.40;;;;;;;11.92;63.37;100354.63;5160235;27;20060;-80
2022/05/13 02:29:08;;;;;;;4.32;0.90;;;;;;;12.00;62.63;100357.88;5160447;27;20101;-79
2022/05/13 02:31:34;;;;;;;3.67;0.90;;;;;;;12.05;62.66;100359.94;5161031;27;20437;-80
2022/05/13 02:34:00;;;;;;;3.33;1.00;;;;;;;12.01;62.68;100364.94;5141944;27;20789;-79
2022/05/13 02:36:26;;;;;;;5.05;1.42;;;;;;;11.97;62.92;100357.50;5160121;27;20038;-80
2022/05/13 02:38:52;;;;;;;9.30;1.25;;;;;;;11.91;63.08;100359.19;5159999;27;20033;-80
2022/05/13 02:41:18;;;;;;;2.47;1.02;;;;;;;11.86;63.74;100364.41;5141489;27;20027;-79
2022/05/13 02:43:53;;;;;;;3.72;0.90;;;;;;;11.81;63.71;100359.66;5159877;27;20035;-80
2022/05/13 02:46:36;;;;;;;2.80;0.98;;;;;;;11.72;63.52;100358.22;5159038;27;20034;-80
2022/05/13 02:49:02;;;;;;;6.43;1.02;;;;;;;11.69;64.37;100372.13;5159565;27;20030;-80
2022/05/13 02:51:28;;;;;;;4.35;0.88;;;;;;;11.67;64.85;100365.28;5159103;27;20052;-80
2022/05/13 02:53:54;;;;;;;4.53;1.35;;;;;;;11.47;65.37;100376.13;5159591;27;20107;-80
2022/05/13 02:56:20;;;;;;;2.42;1.02;;;;;;;11.59;64.67;100371.75;5161519;27;20044;-80
2022/05/13 02:58:46;;;;;;;4.15;0.95;;;;;;;11.63;64.59;100374.88;5161032;27;20393;-80
2022/05/13 03:01:13;;;;;;;;;;;;;;;11.56;65.25;100368.66;5141996;27;20022;-79
2022/05/13 03:03:40;;;;;;;2.22;0.95;;;;;;;11.52;64.88;100376.34;5158842;27;20424;-79
2022/05/13 03:06:06;;;;;;;2.83;0.88;;;;;;;11.46;65.14;100372.59;5158863;27;20039;-79
2022/05/13 03:08:32;;;;;;;3.22;0.90;;;;;;;11.34;65.11;100379.69;5139917;27;20584;-79
2022/05/13 03:10:57;;;;;;;3.28;0.93;;;;;;;11.27;65.18;100381.59;5158029;27;20038;-78
2022/05/13 03:13:22;;;;;;;6.33;1.57;;;;;;;11.08;66.68;100375.19;5139881;27;20029;-81
2022/05/13 03:15:48;;;;;;;3.45;1.00;;;;;;;11.05;66.53;100369.38;5158855;27;20050;-79
2022/05/13 03:18:14;;;;;;;3.35;1.33;;;;;;;11.00;67.07;100370.00;5140925;27;20425;-79
2022/05/13 03:20:40;;;;;;;2.65;1.13;;;;;;;10.95;67.07;100364.41;5160785;27;20030;-80
2022/05/13 03:23:06;;;;;;;3.40;0.90;;;;;;;10.92;67.00;100362.16;5161341;27;20026;-81
2022/05/13 03:25:31;;;;;;;3.07;1.00;;;;;;;10.87;67.81;100355.72;5160398;27;20027;-80
2022/05/13 03:27:56;;;;;;;4.18;1.20;;;;;;;10.87;67.76;100345.75;5158509;27;20058;-80
2022/05/13 03:30:23;;;;;;;1.87;0.83;;;;;;;10.71;68.23;100352.41;5160216;27;20035;-80
2022/05/13 03:32:50;;;;;;;5.03;1.58;;;;;;;10.67;68.74;100361.94;5161834;27;20019;-80
2022/05/13 03:35:17;;;;;;;5.85;1.50;;;;;;;10.72;68.54;100362.16;5162935;27;20023;-81
2022/05/13 03:37:43;;;;;;;4.63;1.10;;;;;;;10.70;68.37;100356.13;5162822;27;20038;-79
2022/05/13 03:40:09;;;;;;;2.10;0.93;;;;;;;10.70;68.58;100356.13;5162052;27;20033;-79
2022/05/13 03:42:38;;;;;;;;;;;;;;;10.64;68.77;100367.72;5161944;27;20120;-80
2022/05/13 03:45:05;;;;;;;1.92;0.85;;;;;;;10.62;69.28;100363.59;5158217;27;20361;-80
2022/05/13 03:47:30;;;;;;;4.18;1.55;;;;;;;10.51;69.83;100364.22;5160283;27;20516;-80
2022/05/13 03:49:56;;;;;;;3.08;1.30;;;;;;;10.52;69.56;100360.47;5160388;27;20071;-80
2022/05/13 03:52:21;;;;;;;3.45;1.10;;;;;;;10.41;69.49;100364.59;5159688;27;20031;-79
2022/05/13 03:54:47;;;;;;;3.40;1.17;;;;;;;10.35;69.52;100368.13;5158112;27;20035;-79
2022/05/13 03:57:12;;;;;;;5.13;1.00;;;;;;;10.34;69.71;100361.09;5157027;27;20303;-78
2022/05/13 03:59:38;;;;;;;2.60;1.10;;;;;;;10.27;69.87;100366.44;5158085;27;20106;-79
2022/05/13 04:02:04;;;;;;;3.28;1.10;;;;;;;10.28;70.39;100361.88;5157012;27;20023;-79
2022/05/13 04:08:56;;;;;;;3.35;1.08;;;;;;;10.24;70.55;100374.09;5156782;27;20056;-78
2022/05/13 04:10:05;;;;;;;5.57;1.17;;;;;;;10.06;71.66;100363.88;5107828;27;20060;-79
2022/05/13 04:17:58;;;;;;;2.17;0.80;;;;;;;10.18;71.25;100370.34;5156544;27;20037;-79
2022/05/13 04:20:23;;;;;;;3.40;1.00;;;;;;;10.19;70.81;100376.59;5159225;27;20102;-79
2022/05/13 04:22:48;;;;;;;2.00;0.90;;;;;;;10.14;70.69;100381.72;5159481;27;20440;-79
2022/05/13 04:25:14;;;;;;;2.17;0.80;;;;;;;10.22;70.29;100384.22;5160064;27;20883;-79
2022/05/13 04:27:41;;;;;;;4.35;1.25;;;;;;;10.31;69.93;100369.56;5160155;27;20030;-80
2022/05/13 04:30:07;;;;;;;4.00;0.93;;;;;;;10.26;70.62;100377.41;5161222;27;20492;-80
2022/05/13 04:32:32;;;;;;;3.97;1.15;;;;;;;10.17;70.38;100387.53;5159553;27;20035;-78
2022/05/13 04:34:58;;;;;;;2.73;0.90;;;;;;;10.24;70.50;100388.38;5159205;27;20031;-79
2022/05/13 04:37:24;;;;;;;4.77;1.13;;;;;;;10.28;70.61;100388.81;5160314;27;20046;-79
2022/05/13 04:39:53;;;;;;;1.98;0.85;;;;;;;10.28;70.18;100384.25;5161224;27;20374;-80
2022/05/13 04:45:02;;;;;;;4.95;1.30;;;;;;;10.28;70.49;100386.97;5161060;27;20079;-81
2022/05/13 04:50:12;;;;;;;6.78;1.38;;;;;;;10.33;70.63;100389.88;5144013;27;20369;-79
2022/05/13 04:52:37;;;;;;;2.85;0.82;;;;;;;10.32;70.19;100390.06;5158478;27;20034;-79
2022/05/13 04:55:03;;;;;;;4.55;1.00;;;;;;;10.24;70.84;100393.78;5159197;27;20034;-78
2022/05/13 04:57:29;;;;;;;3.95;1.33;;;;;;;10.26;71.56;100385.50;5161577;27;20051;-79
2022/05/13 04:59:54;;;;;;;3.67;1.10;;;;;;;10.24;71.23;100395.63;5162618;27;20026;-81
2022/05/13 05:02:19;;;;;;;2.63;1.17;;;;;;;10.25;70.94;100400.81;5161684;27;20043;-79
2022/05/13 05:04:45;;;;;;;4.50;1.73;;;;;;;10.31;71.59;100400.03;5161461;27;20271;-80
2022/05/13 05:07:10;;;;;;;6.40;1.27;;;;;;;10.38;71.02;100410.81;5161885;27;20476;-80
2022/05/13 05:09:36;;;;;;;4.47;1.10;;;;;;;10.50;71.04;100395.72;5142500;27;20291;-79
2022/05/13 05:12:02;;;;;;;5.70;1.13;;;;;;;10.46;71.19;100402.53;5142729;27;20019;-80
2022/05/13 05:14:27;;;;;;;;;;;;;;;10.52;70.84;100406.28;5161326;27;20039;-80
2022/05/13 05:16:53;;;;;;;7.23;2.03;;;;;;;10.66;71.08;100421.44;5160547;27;19915;-80
2022/05/13 05:19:18;;;;;;;2.67;0.88;;;;;;;10.76;70.53;100421.84;5142645;27;20027;-79
2022/05/13 05:21:44;;;;;;;3.17;1.15;;;;;;;10.78;69.61;100426.00;5140599;27;20027;-79
2022/05/13 05:24:10;;;;;;;4.10;1.00;;;;;;;10.76;70.61;100430.75;5159622;27;20034;-79
2022/05/13 05:26:37;;;;;;;9.70;1.50;;;;;;;10.76;70.75;100425.34;5160477;27;20392;-81
2022/05/13 05:29:02;;;;;;;;;;;;;;;10.89;70.48;100434.50;5159394;27;20023;-79
2022/05/13 05:31:27;;;;;;;4.50;1.20;;;;;;;10.86;70.61;100437.63;5159279;27;20322;-79
2022/05/13 05:33:53;;;;;;;3.00;1.07;;;;;;;10.98;70.19;100435.94;5159637;27;20030;-83
2022/05/13 05:36:18;;;;;;;8.80;1.53;;;;;;;11.16;69.41;100441.56;5142049;27;20366;-79
2022/05/13 05:38:43;;;;;;;5.47;1.17;;;;;;;11.07;69.68;100443.66;5161251;27;20441;-80
2022/05/13 05:41:09;;;;;;;6.80;1.63;;;;;;;11.06;69.75;100443.84;5161854;27;20045;-79
2022/05/13 05:43:35;;;;;;;5.72;1.83;;;;;;;11.26;69.50;100449.25;5161769;27;20023;-80
2022/05/13 05:46:02;;;;;;;5.70;1.30;;;;;;;11.18;69.81;100444.88;5163231;27;20106;-81
2022/05/13 05:48:28;;;;;;;3.80;1.13;;;;;;;11.18;70.18;100449.44;5144553;27;20046;-80
2022/05/13 05:50:56;;;;;;;4.22;1.13;;;;;;;11.24;69.88;100452.16;5145719;27;20109;-81
2022/05/13 05:58:52;;;;;;;2.53;1.10;;;;;;;11.26;70.21;100460.88;5163891;27;20138;-81
2022/05/13 06:01:17;;;;;;;5.22;1.27;;;;;;;11.27;70.58;100459.00;5166395;27;20027;-81
2022/05/13 06:03:52;;;;;;;4.60;1.08;;;;;;;11.35;70.42;100454.19;5147272;27;20049;-81
2022/05/13 06:06:17;;;;;;;3.63;1.15;;;;;;;11.36;71.14;100461.25;5165339;27;20039;-81
2022/05/13 06:08:42;;;;;;;4.07;1.27;;;;;;;11.40;69.80;100464.38;5165811;27;20030;-82
2022/05/13 06:11:09;;;;;;;2.83;1.08;;;;;;;11.49;69.88;100463.94;5165638;27;20299;-81
2022/05/13 06:13:38;;;;;;;6.45;2.00;;;;;;;11.62;69.51;100465.81;5142102;27;20043;-82
2022/05/13 06:16:07;;;;;;;5.38;1.73;;;;;;;11.66;69.47;100472.41;5146213;27;20023;-81
2022/05/13 06:18:38;;;;;;;3.95;1.30;;;;;;;11.81;69.22;100474.94;5144323;27;20029;-79
2022/05/13 06:21:04;;;;;;;8.45;1.38;;;;;;;12.15;68.00;100474.59;5158429;27;20026;-78
2022/05/13 06:23:30;;;;;;;;;;;;;;;12.86;65.89;100479.84;5160202;27;20027;-78
2022/05/13 06:25:55;;;;;;;7.00;1.33;;;;;;;13.58;63.16;100479.50;5159572;27;20398;-80
2022/05/13 06:28:20;;;;;;;6.17;1.50;;;;;;;13.89;62.49;100477.50;5160195;27;20037;-80
2022/05/13 06:30:46;;;;;;;4.80;1.23;;;;;;;15.14;58.63;100475.00;5159833;27;20309;-80
2022/05/13 06:33:14;;;;;;;5.88;1.65;;;;;;;15.78;55.62;100483.31;5157665;27;20318;-78
2022/05/13 06:35:41;;;;;;;3.42;1.10;;;;;;;15.90;55.93;100478.69;5160426;27;20031;-80
2022/05/13 06:38:08;;;;;;;3.67;1.30;;;;;;;16.17;55.16;100477.09;5141289;27;20306;-86
2022/05/13 06:40:33;;;;;;;4.53;1.08;;;;;;;16.29;53.37;100480.63;5144446;27;20445;-79
2022/05/13 06:42:59;;;;;;;5.47;1.10;;;;;;;16.48;53.53;100486.69;5157464;27;20031;-79
2022/05/13 06:45:24;;;;;;;;;;;;;;;16.13;54.59;100484.06;5159138;27;20061;-79
2022/05/13 06:47:49;;;;;;;5.07;1.50;;;;;;;17.00;52.05;100483.91;5158276;27;19907;-80
2022/05/13 06:50:19;;;;;;;;;;;;;;;16.98;51.87;100489.59;5158905;27;20453;-78
2022/05/13 06:52:45;;;;;;;4.15;1.65;;;;;;;16.46;53.17;100486.13;5138128;27;20269;-77
2022/05/13 06:55:14;;;;;;;4.70;1.60;;;;;;;16.55;53.04;100492.81;5155740;27;20029;-77
2022/05/13 06:57:40;;;;;;;5.05;1.13;;;;;;;15.73;55.22;100491.34;5155986;27;20053;-77
2022/05/13 07:00:06;;;;;;;;;;;;;;;14.96;57.21;100502.19;5156022;27;20027;-77
2022/05/13 07:02:31;;;;;;;5.50;1.67;;;;;;;14.78;57.65;100503.09;5155976;27;19914;-77
2022/05/13 07:04:57;;;;;;;4.50;1.20;;;;;;;14.85;57.88;100508.44;5156009;27;20075;-78
2022/05/13 07:07:22;;;;;;;;;;;;;;;14.53;59.18;100507.81;5154934;27;20153;-79
2022/05/13 07:09:47;;;;;;;6.23;1.10;;;;;;;14.44;59.67;100509.19;5155173;27;19915;-79
2022/05/13 07:12:12;;;;;;;4.30;1.23;;;;;;;14.09;59.66;100519.78;5155263;27;20327;-76
2022/05/13 07:14:38;;;;;;;4.80;1.50;;;;;;;14.09;59.93;100515.19;5136819;27;20118;-77
2022/05/13 07:17:04;;;;;;;;;;;;;;;13.95;60.04;100527.25;5136994;27;20041;-78
2022/05/13 07:19:30;;;;;;;4.10;1.73;;;;;;;13.66;60.64;100526.03;5154765;27;19915;-78
2022/05/13 07:21:55;;;;;;;3.60;1.40;;;;;;;13.97;60.76;100525.13;5138541;27;20026;-77
2022/05/13 07:24:20;;;;;;;5.10;1.40;;;;;;;14.02;61.67;100529.84;5160952;27;20033;-79
2022/05/13 07:26:46;;;;;;;3.77;1.17;;;;;;;14.15;60.70;100524.31;5163445;27;20058;-80
2022/05/13 07:29:11;;;;;;;5.33;1.37;;;;;;;14.50;60.37;100527.25;5149545;27;20264;-77
2022/05/13 07:31:38;;;;;;;6.63;1.33;;;;;;;14.53;59.56;100521.34;5163378;27;20259;-79
2022/05/13 07:34:03;;;;;;;4.80;1.23;;;;;;;14.68;60.12;100527.22;5164535;27;20366;-80
2022/05/13 07:36:29;;;;;;;3.60;1.27;;;;;;;14.70;59.84;100527.81;5145857;27;20068;-79
2022/05/13 07:41:38;;;;;;;2.55;1.00;;;;;;;14.78;58.70;100535.63;5163736;27;20388;-79
2022/05/13 07:44:04;;;;;;;5.13;1.55;;;;;;;14.70;59.61;100526.97;5161595;27;20023;-78
2022/05/13 07:46:29;;;;;;;;;;;;;;;14.55;59.19;100530.09;5163508;27;20038;-78
2022/05/13 07:48:54;;;;;;;4.67;1.40;;;;;;;14.69;58.33;100528.84;5146495;27;19915;-78
2022/05/13 07:51:23;;;;;;;6.37;1.57;;;;;;;14.55;59.62;100540.94;5144586;27;20264;-79
2022/05/13 07:53:48;;;;;;;3.83;1.00;;;;;;;14.71;59.68;100532.19;5165615;27;20019;-79
2022/05/13 07:56:13;;;;;;;4.80;1.13;;;;;;;14.47;60.03;100536.69;5165752;27;20094;-79
2022/05/13 07:58:39;;;;;;;5.30;1.20;;;;;;;14.69;59.74;100536.19;5167593;27;20303;-79
2022/05/13 08:01:04;;;;;;;;;;;;;;;14.80;59.15;100540.84;5171406;27;20041;-79
2022/05/13 08:03:32;;;;;;;3.00;1.17;;;;;;;14.93;59.44;100540.63;5171889;27;19910;-79
2022/05/13 08:06:03;;;;;;;4.30;1.00;;;;;;;15.02;58.29;100543.88;5171199;27;20030;-80
2022/05/13 08:08:31;;;;;;;3.97;1.52;;;;;;;15.11;58.40;100542.47;5167643;27;20065;-79
2022/05/13 08:11:00;;;;;;;4.80;1.10;;;;;;;15.10;58.24;100554.38;5145258;27;20090;-79
2022/05/13 08:13:29;;;;;;;3.55;1.30;;;;;;;14.88;58.11;100554.06;5143361;27;20035;-78
2022/05/13 08:15:54;;;;;;;5.90;1.75;;;;;;;14.87;58.68;100541.56;5143254;27;20023;-79
2022/05/13 08:18:21;;;;;;;5.32;1.20;;;;;;;14.93;58.55;100537.94;5162846;27;20027;-78
2022/05/13 08:20:47;;;;;;;5.80;1.38;;;;;;;14.92;58.93;100542.53;5161531;27;20030;-78
2022/05/13 08:23:13;;;;;;;7.18;1.30;;;;;;;14.80;59.14;100546.25;5142543;27;20131;-77
2022/05/13 08:25:39;;;;;;;3.88;1.45;;;;;;;14.90;58.68;100541.94;5160257;27;20030;-78
2022/05/13 08:28:07;;;;;;;4.88;1.73;;;;;;;14.77;59.31;100544.00;5141274;27;20027;-78
2022/05/13 08:30:32;;;;;;;5.22;1.10;;;;;;;14.90;58.88;100539.22;5161717;27;20052;-78
2022/05/13 08:33:01;;;;;;;6.15;1.00;;;;;;;15.07;58.27;100547.53;5160329;27;20030;-79
2022/05/13 08:35:26;;;;;;;2.70;1.42;;;;;;;15.21;58.00;100535.44;5160909;27;20375;-78
2022/05/13 08:37:53;;;;;;;3.23;1.03;;;;;;;15.48;57.92;100538.53;5159442;27;20037;-79
2022/05/13 08:40:52;;;;;;;6.55;1.42;;;;;;;15.75;57.73;100540.84;5159395;27;20312;-78
2022/05/13 08:43:25;;;;;;;5.72;1.65;;;;;;;15.93;56.60;100538.84;5140776;27;20026;-78
2022/05/13 08:45:54;;;;;;;6.28;1.40;;;;;;;16.13;55.42;100537.63;5158874;27;20049;-78
2022/05/13 08:48:30;;;;;;;5.13;1.25;;;;;;;16.27;55.31;100539.03;5158787;27;20023;-77
2022/05/13 08:51:18;;;;;;;5.63;1.42;;;;;;;16.06;56.22;100539.66;5140789;27;20406;-77
2022/05/13 08:54:05;;;;;;;4.05;1.30;;;;;;;16.25;55.11;100536.56;5157339;27;20034;-77
2022/05/13 08:56:31;;;;;;;4.40;1.60;;;;;;;16.13;54.90;100538.44;5170598;27;20102;-80
2022/05/13 08:59:03;;;;;;;6.00;1.67;;;;;;;16.23;54.94;100538.69;5168592;27;20066;-79
2022/05/13 09:01:33;;;;;;;3.10;1.05;;;;;;;16.24;55.65;100540.34;5152398;27;20374;-80
2022/05/13 09:04:05;;;;;;;4.15;1.63;;;;;;;16.30;54.50;100539.34;5164890;27;20065;-79
2022/05/13 09:06:46;;;;;;;6.13;1.45;;;;;;;16.32;54.87;100542.66;5162640;27;20050;-80
2022/05/13 09:09:12;;;;;;;5.75;1.42;;;;;;;16.40;53.69;100536.03;5161563;27;20113;-80
2022/05/13 09:11:37;;;;;;;;;;;;;;;16.42;54.05;100541.25;5163686;27;20026;-80
2022/05/13 09:14:25;;;;;;;3.30;0.97;;;;;;;16.57;52.93;100541.56;5162751;27;19907;-79
2022/05/13 09:17:00;;;;;;;4.22;1.10;;;;;;;16.36;53.69;100545.75;5162720;27;20026;-81
2022/05/13 09:19:33;;;;;;;3.15;1.00;;;;;;;16.67;53.07;100547.22;5162349;27;20422;-79
2022/05/13 09:21:59;;;;;;;3.20;0.93;;;;;;;16.52;51.73;100546.88;5162695;27;20031;-79
2022/05/13 09:24:25;;;;;;;2.90;1.00;;;;;;;16.56;52.04;100539.91;5162517;27;20034;-79
2022/05/13 09:26:53;;;;;;;3.58;1.20;;;;;;;16.77;51.65;100538.44;5163325;27;20452;-80
2022/05/13 09:29:19;;;;;;;4.97;1.13;;;;;;;16.79;50.29;100544.47;5162510;27;20029;-80
2022/05/13 09:31:57;;;;;;;4.78;1.15;;;;;;;16.45;50.43;100547.03;5162575;27;20026;-80
2022/05/13 09:34:48;;;;;;;2.72;1.15;;;;;;;16.48;50.88;100549.25;5163553;27;20023;-80
2022/05/13 09:37:31;;;;;;;3.80;1.00;;;;;;;16.53;52.25;100543.09;5143290;27;20128;-81
2022/05/13 09:40:15;;;;;;;3.90;1.40;;;;;;;16.89;51.23;100552.81;5140376;27;20076;-79
2022/05/13 09:42:52;;;;;;;3.30;1.15;;;;;;;16.99;50.58;100542.97;5159153;27;20023;-79
2022/05/13 09:45:20;;;;;;;5.72;1.00;;;;;;;16.91;50.38;100545.25;5162691;27;20034;-80
2022/05/13 09:47:58;;;;;;;6.32;1.55;;;;;;;16.80;51.12;100552.41;5162716;27;20054;-81
2022/05/13 09:50:29;;;;;;;3.28;1.30;;;;;;;16.95;49.80;100546.41;5163714;27;20026;-79
2022/05/13 09:53:04;;;;;;;3.33;1.10;;;;;;;17.09;50.28;100549.66;5161760;27;20089;-80
2022/05/13 09:55:35;;;;;;;4.10;1.50;;;;;;;16.95;50.59;100549.97;5161943;27;20026;-80
2022/05/13 09:58:09;;;;;;;4.82;1.58;;;;;;;16.90;50.45;100551.75;5161515;27;20074;-79
2022/05/13 10:00:39;;;;;;;4.40;1.60;;;;;;;16.78;51.32;100557.25;5161219;27;20030;-79
2022/05/13 10:03:29;;;;;;;5.53;1.30;;;;;;;16.80;51.07;100554.28;5162115;27;20026;-80
2022/05/13 10:06:10;;;;;;;5.38;1.92;;;;;;;16.62;51.00;100553.38;5161614;27;20101;-79
2022/05/13 10:13:57;;;;;;;3.38;1.02;;;;;;;16.59;50.92;100553.03;5160665;27;20031;-80
2022/05/13 10:14:41;;;;;;;4.93;1.50;;;;;;;16.36;50.97;100550.34;5164087;27;20075;-80
2022/05/13 10:17:19;;;;;;;3.42;1.40;;;;;;;16.04;51.02;100561.63;5142837;27;20026;-80
2022/05/13 10:19:54;;;;;;;2.92;0.85;;;;;;;16.02;49.86;100563.75;5144132;27;20368;-79
2022/05/13 10:22:25;;;;;;;2.10;0.88;;;;;;;15.86;49.67;100554.44;5142726;27;20026;-80
2022/05/13 10:24:59;;;;;;;3.55;0.80;;;;;;;16.03;49.61;100559.97;5163699;27;20022;-81
2022/05/13 10:27:45;;;;;;;2.63;1.00;;;;;;;16.13;49.46;100556.66;5142837;27;20054;-78
2022/05/13 10:30:21;;;;;;;2.50;0.80;;;;;;;16.29;50.06;100558.66;5160515;27;20023;-78
2022/05/13 10:32:56;;;;;;;2.72;1.00;;;;;;;16.32;50.21;100550.81;5159565;27;20086;-81
2022/05/13 10:35:26;;;;;;;2.05;0.80;;;;;;;16.33;50.60;100563.34;5161016;27;20086;-81
2022/05/13 10:38:13;;;;;;;2.70;0.90;;;;;;;16.39;50.10;100552.59;5163242;27;20062;-81
2022/05/13 10:40:43;;;;;;;;;;;;;;;16.32;50.52;100560.88;5162858;27;20061;-80
2022/05/13 10:43:17;;;;;;;3.70;1.08;;;;;;;16.45;50.85;100562.53;5143733;27;19937;-80
2022/05/13 10:45:44;;;;;;;4.63;1.13;;;;;;;16.22;50.10;100564.22;5161010;27;20106;-79
2022/05/13 10:48:27;;;;;;;3.70;1.00;;;;;;;16.26;50.61;100564.56;5161387;27;20035;-79
2022/05/13 10:51:31;;;;;;;1.95;0.80;;;;;;;16.18;50.37;100570.34;5157467;27;20217;-77
2022/05/13 10:54:18;;;;;;;2.88;0.90;;;;;;;16.53;49.04;100570.28;5125482;27;20125;-78
2022/05/13 10:57:14;;;;;;;4.18;0.73;;;;;;;16.71;49.48;100572.88;5139659;27;20469;-80
2022/05/13 11:00:12;;;;;;;2.95;1.10;;;;;;;16.64;49.28;100574.94;5159891;27;20035;-79
2022/05/13 11:02:40;;;;;;;;;;;;;;;16.72;48.88;100563.66;5157543;27;20129;-79
2022/05/13 11:05:14;;;;;;;8.27;2.55;;;;;;;16.86;48.68;100561.47;5157715;27;19906;-79
2022/05/13 11:08:01;;;;;;;3.80;1.60;;;;;;;16.92;48.19;100564.06;5159683;27;20033;-79
2022/05/13 11:10:32;;;;;;;;;;;;;;;17.03;48.40;100559.63;5160279;27;20048;-78
2022/05/13 11:13:19;;;;;;;5.20;1.40;;;;;;;17.08;48.51;100561.59;5157976;27;19910;-80
2022/05/13 11:16:21;;;;;;;4.32;1.50;;;;;;;17.21;47.28;100553.13;5140677;27;20484;-79
2022/05/13 11:19:06;;;;;;;2.88;1.23;;;;;;;17.07;48.73;100559.97;5137344;27;20046;-80
2022/05/13 11:21:52;;;;;;;6.57;1.27;;;;;;;17.50;47.87;100562.91;5159785;27;20027;-79
2022/05/13 11:27:50;;;;;;;2.80;1.35;;;;;;;17.54;46.79;100561.34;5158494;27;20105;-80
2022/05/13 11:30:18;;;;;;;8.23;1.98;;;;;;;17.98;45.48;100556.06;5163741;27;20387;-79
2022/05/13 11:32:56;;;;;;;2.78;1.30;;;;;;;17.88;45.73;100559.47;5163040;27;20022;-80
2022/05/13 11:35:41;;;;;;;5.55;1.70;;;;;;;17.46;45.13;100569.94;5162625;27;20033;-79
2022/05/13 11:38:26;;;;;;;4.55;1.80;;;;;;;17.41;45.52;100558.94;5161345;27;20457;-78
2022/05/13 11:41:13;;;;;;;3.50;1.50;;;;;;;17.68;45.49;100575.50;5163715;27;20144;-80
2022/05/13 11:43:57;;;;;;;3.60;1.50;;;;;;;17.65;46.80;100581.44;5162745;27;20041;-80
2022/05/13 11:47:00;;;;;;;4.60;1.42;;;;;;;17.61;46.17;100572.06;5162863;27;20452;-80
2022/05/13 11:49:30;;;;;;;3.15;1.35;;;;;;;17.70;45.33;100570.63;5162228;27;20055;-79
2022/05/13 11:52:02;;;;;;;3.95;1.73;;;;;;;17.75;45.60;100573.41;5162657;27;20058;-80
2022/05/13 11:54:29;;;;;;;4.65;1.52;;;;;;;17.58;45.74;100575.28;5163003;27;20392;-79
2022/05/13 11:57:16;;;;;;;2.70;1.40;;;;;;;17.50;46.03;100576.53;5161255;27;20038;-79
2022/05/13 12:00:15;;;;;;;4.38;1.60;;;;;;;17.84;45.14;100571.13;5143401;27;20566;-79
2022/05/13 12:02:51;;;;;;;3.50;1.60;;;;;;;18.16;44.51;100571.31;5162358;27;20049;-79
2022/05/13 12:05:17;;;;;;;3.65;1.30;;;;;;;18.12;44.57;100570.16;5142430;27;20046;-79
2022/05/13 12:07:52;;;;;;;;;;;;;;;18.08;45.07;100572.59;5161989;27;20026;-79
2022/05/13 12:10:23;;;;;;;3.55;1.60;;;;;;;18.42;43.84;100567.03;5162181;27;20436;-79